Time;durP1;ratioP1;P1;durP2;ratioP2;P2;SDS_P1;SDS_P2;PMS_P1;PMS_P2;Temp;Humidity;BMP_temperature;BMP_pressure;BME280_temperature;BME280_humidity;BME280_pressure;Samples;Min_cycle;Max_cycle;Signal;HPM_P1;HPM_P2
2022/06/12 00:02:15;;;;;;;10.27;9.38;;;;;;;;;;6276465;22;20219;-86
2022/06/12 00:04:42;;;;;;;10.55;9.57;;;;;;;;;;6275525;22;20245;-86
2022/06/12 00:07:09;;;;;;;10.98;9.93;;;;;;;;;;6275215;22;20248;-86
2022/06/12 00:09:38;;;;;;;10.15;9.25;;;;;;;;;;6275804;22;20172;-86
2022/06/12 00:12:17;;;;;;;8.50;7.70;;;;;;;;;;6276395;22;20198;-86
2022/06/12 00:14:44;;;;;;;7.65;6.90;;;;;;;;;;6275907;22;20198;-86
2022/06/12 00:17:12;;;;;;;7.50;6.80;;;;;;;;;;6275625;22;20193;-87
2022/06/12 00:19:44;;;;;;;7.20;6.50;;;;;;;;;;6276109;22;20496;-86
2022/06/12 00:22:12;;;;;;;6.80;6.20;;;;;;;;;;6275417;22;20172;-86
2022/06/12 00:24:44;;;;;;;7.18;6.57;;;;;;;;;;6275897;22;20194;-86
2022/06/12 00:27:15;;;;;;;7.05;6.45;;;;;;;;;;6275283;22;20175;-86
2022/06/12 00:29:47;;;;;;;7.10;6.43;;;;;;;;;;6276052;22;20194;-87
2022/06/12 00:32:18;;;;;;;7.45;6.22;;;;;;;;;;6276049;22;20176;-86
2022/06/12 00:34:56;;;;;;;6.03;5.63;;;;;;;;;;6275994;22;20677;-86
2022/06/12 00:37:27;;;;;;;6.07;5.47;;;;;;;;;;6275756;22;20168;-87
2022/06/12 00:39:55;;;;;;;6.68;6.07;;;;;;;;;;6275496;22;20196;-86
2022/06/12 00:42:30;;;;;;;6.63;6.03;;;;;;;;;;6275436;22;20234;-86
2022/06/12 00:45:06;;;;;;;6.47;5.88;;;;;;;;;;6277294;22;20199;-84
2022/06/12 00:47:36;;;;;;;6.55;6.00;;;;;;;;;;6276423;22;20179;-84
2022/06/12 00:50:06;;;;;;;6.22;5.63;;;;;;;;;;6277964;22;20164;-84
2022/06/12 01:20:31;;;;;;;5.88;5.38;;;;;;;;;;6203880;23;20173;-86
2022/06/12 01:40:31;;;;;;;5.68;5.18;;;;;;;;;;6366504;22;20205;-84
2022/06/12 01:49:33;;;;;;;5.35;4.93;;;;;;;;;;6367929;22;20193;-85
2022/06/12 01:52:14;;;;;;;5.60;5.10;;;;;;;;;;6370497;22;20173;-85
2022/06/12 01:54:55;;;;;;;4.97;4.57;;;;;;;;;;6369672;22;20190;-84
2022/06/12 01:57:32;;;;;;;5.10;4.60;;;;;;;;;;6370369;22;20169;-83
2022/06/12 02:00:11;;;;;;;5.05;4.55;;;;;;;;;;6371163;22;20241;-86
2022/06/12 02:02:45;;;;;;;5.43;4.90;;;;;;;;;;6371150;22;20162;-86
2022/06/12 02:05:24;;;;;;;4.95;4.53;;;;;;;;;;6370567;22;20212;-86
2022/06/12 02:08:01;;;;;;;5.10;4.70;;;;;;;;;;6370461;22;20193;-85
2022/06/12 02:10:37;;;;;;;5.72;5.20;;;;;;;;;;6370842;22;20275;-85
2022/06/12 02:13:11;;;;;;;5.15;4.72;;;;;;;;;;6369968;22;20169;-85
2022/06/12 02:18:35;;;;;;;5.72;5.05;;;;;;;;;;6368727;22;20170;-85
2022/06/12 02:21:15;;;;;;;5.20;4.75;;;;;;;;;;6370701;22;20166;-86
2022/06/12 02:23:47;;;;;;;4.97;4.57;;;;;;;;;;6370229;22;20173;-85
2022/06/12 02:26:21;;;;;;;5.93;4.75;;;;;;;;;;6371096;22;20185;-85
2022/06/12 02:28:50;;;;;;;5.50;5.00;;;;;;;;;;6371006;22;20184;-84
2022/06/12 02:31:35;;;;;;;5.25;4.75;;;;;;;;;;6370960;22;20196;-86
2022/06/12 02:37:00;;;;;;;5.43;4.97;;;;;;;;;;6368811;22;20177;-86
2022/06/12 02:39:37;;;;;;;5.63;4.82;;;;;;;;;;6371181;22;20230;-86
2022/06/12 02:42:27;;;;;;;5.32;4.93;;;;;;;;;;6371054;22;20173;-85
2022/06/12 02:45:16;;;;;;;5.50;5.00;;;;;;;;;;6370785;22;20190;-85
2022/06/12 02:47:48;;;;;;;5.10;4.60;;;;;;;;;;6373455;22;20166;-85
2022/06/12 02:50:17;;;;;;;5.47;5.00;;;;;;;;;;6374090;22;20222;-85
2022/06/12 02:52:53;;;;;;;5.38;4.95;;;;;;;;;;6374885;22;20515;-85
2022/06/12 02:55:27;;;;;;;5.70;5.10;;;;;;;;;;6373604;22;20192;-85
2022/06/12 02:58:00;;;;;;;5.53;5.03;;;;;;;;;;6373767;22;20180;-85
2022/06/12 03:00:31;;;;;;;5.18;4.78;;;;;;;;;;6374035;22;20169;-85
2022/06/12 03:03:05;;;;;;;5.75;5.20;;;;;;;;;;6373942;22;20174;-85
2022/06/12 03:05:35;;;;;;;5.35;4.90;;;;;;;;;;6373596;22;20247;-85
2022/06/12 03:08:06;;;;;;;5.15;4.55;;;;;;;;;;6373579;22;20197;-85
2022/06/12 03:10:39;;;;;;;5.20;4.80;;;;;;;;;;6373376;22;20166;-85
2022/06/12 03:13:08;;;;;;;5.10;4.70;;;;;;;;;;6372956;22;20166;-84
2022/06/12 03:15:37;;;;;;;5.35;4.85;;;;;;;;;;6372265;22;20189;-86
2022/06/12 03:18:08;;;;;;;5.00;4.57;;;;;;;;;;6372670;22;20166;-84
2022/06/12 03:20:39;;;;;;;4.80;4.43;;;;;;;;;;6372485;22;20166;-86
2022/06/12 03:23:13;;;;;;;4.85;4.45;;;;;;;;;;6372354;22;20166;-85
2022/06/12 03:25:45;;;;;;;5.30;4.90;;;;;;;;;;6372977;22;20189;-85
2022/06/12 03:28:14;;;;;;;5.28;4.65;;;;;;;;;;6372673;22;20181;-85
2022/06/12 03:30:44;;;;;;;5.03;4.63;;;;;;;;;;6372016;22;20197;-85
2022/06/12 03:33:14;;;;;;;4.85;4.40;;;;;;;;;;6372710;22;20162;-85
2022/06/12 03:35:48;;;;;;;4.90;4.38;;;;;;;;;;6372650;22;20204;-85
2022/06/12 03:38:20;;;;;;;4.93;4.53;;;;;;;;;;6371092;22;20161;-85
2022/06/12 03:40:51;;;;;;;5.07;4.68;;;;;;;;;;6371701;22;20250;-85
2022/06/12 03:43:22;;;;;;;4.85;4.43;;;;;;;;;;6371402;22;20170;-85
2022/06/12 03:45:58;;;;;;;4.53;4.13;;;;;;;;;;6371577;22;20190;-82
2022/06/12 03:48:29;;;;;;;4.85;4.45;;;;;;;;;;6371931;22;20185;-85
2022/06/12 03:51:03;;;;;;;4.80;4.40;;;;;;;;;;6372591;22;20158;-86
2022/06/12 03:53:48;;;;;;;4.40;4.00;;;;;;;;;;6371403;22;20188;-85
2022/06/12 03:59:19;;;;;;;4.43;4.13;;;;;;;;;;6372529;22;20251;-83
2022/06/12 04:01:48;;;;;;;4.50;4.10;;;;;;;;;;6372628;22;20170;-84
2022/06/12 04:04:19;;;;;;;4.60;4.20;;;;;;;;;;6372005;22;20244;-85
2022/06/12 04:06:53;;;;;;;4.32;3.92;;;;;;;;;;6372783;22;20176;-83
2022/06/12 04:12:26;;;;;;;4.00;3.70;;;;;;;;;;6373068;22;20175;-87
2022/06/12 04:15:01;;;;;;;4.13;3.65;;;;;;;;;;6373194;22;20208;-84
2022/06/12 04:17:30;;;;;;;4.00;3.70;;;;;;;;;;6373718;22;20177;-84
2022/06/12 04:20:11;;;;;;;4.15;3.75;;;;;;;;;;6373735;22;20165;-85
2022/06/12 04:22:53;;;;;;;4.00;3.70;;;;;;;;;;6372956;22;20363;-85
2022/06/12 04:25:34;;;;;;;4.30;3.90;;;;;;;;;;6372711;22;20226;-86
2022/06/12 04:28:17;;;;;;;3.78;3.47;;;;;;;;;;6372624;22;20170;-85
2022/06/12 04:30:45;;;;;;;4.22;3.90;;;;;;;;;;6373159;22;20162;-85
2022/06/12 04:36:16;;;;;;;4.72;3.90;;;;;;;;;;6371605;22;20272;-83
2022/06/12 04:38:47;;;;;;;4.10;3.72;;;;;;;;;;6373252;22;20158;-86
2022/06/12 04:44:11;;;;;;;3.95;3.63;;;;;;;;;;6369495;22;20181;-85
2022/06/12 04:46:57;;;;;;;4.13;3.50;;;;;;;;;;6373681;22;20169;-87
2022/06/12 04:49:42;;;;;;;3.97;3.67;;;;;;;;;;6372287;22;20181;-85
2022/06/12 04:52:12;;;;;;;4.22;3.88;;;;;;;;;;6373864;22;20197;-86
2022/06/12 04:54:41;;;;;;;4.50;4.10;;;;;;;;;;6372986;22;20186;-85
2022/06/12 04:57:17;;;;;;;4.55;3.88;;;;;;;;;;6372885;22;20170;-85
2022/06/12 04:59:54;;;;;;;4.82;4.47;;;;;;;;;;6373155;22;20169;-85
2022/06/12 05:02:23;;;;;;;4.70;4.30;;;;;;;;;;6376792;22;20170;-84
2022/06/12 05:04:51;;;;;;;4.35;4.05;;;;;;;;;;6376304;22;20194;-85
2022/06/12 05:07:21;;;;;;;4.45;3.90;;;;;;;;;;6377552;22;20166;-85
2022/06/12 05:09:55;;;;;;;4.10;3.70;;;;;;;;;;6376213;22;20189;-85
2022/06/12 05:12:25;;;;;;;4.38;3.90;;;;;;;;;;6375432;22;20170;-85
2022/06/12 05:15:03;;;;;;;4.82;4.03;;;;;;;;;;6376645;22;20209;-82
2022/06/12 05:17:31;;;;;;;4.45;4.05;;;;;;;;;;6377932;22;20188;-85
2022/06/12 05:20:04;;;;;;;4.35;3.95;;;;;;;;;;6376962;22;20225;-85
2022/06/12 05:22:32;;;;;;;4.15;3.85;;;;;;;;;;6377726;22;20170;-83
2022/06/12 05:24:59;;;;;;;3.95;3.65;;;;;;;;;;6378154;22;20261;-86
2022/06/12 05:27:26;;;;;;;4.82;4.28;;;;;;;;;;6374599;22;20170;-85
2022/06/12 05:29:57;;;;;;;4.55;4.15;;;;;;;;;;6376117;22;20186;-87
2022/06/12 05:32:34;;;;;;;4.07;3.70;;;;;;;;;;6378156;22;20166;-86
2022/06/12 05:35:02;;;;;;;3.92;3.63;;;;;;;;;;6374487;22;20209;-85
2022/06/12 05:37:29;;;;;;;4.90;3.60;;;;;;;;;;6378317;22;20169;-85
2022/06/12 05:39:59;;;;;;;3.83;3.53;;;;;;;;;;6379470;22;20166;-85
2022/06/12 05:42:27;;;;;;;4.22;3.88;;;;;;;;;;6378781;22;20249;-87
2022/06/12 05:44:57;;;;;;;3.60;3.38;;;;;;;;;;6378228;22;20196;-85
2022/06/12 05:47:30;;;;;;;4.18;3.78;;;;;;;;;;6378654;22;20165;-85
2022/06/12 05:50:00;;;;;;;4.10;3.80;;;;;;;;;;6379345;22;20189;-85
2022/06/12 05:52:30;;;;;;;3.80;3.38;;;;;;;;;;6377254;22;20601;-86
2022/06/12 05:54:57;;;;;;;3.63;3.33;;;;;;;;;;6377253;22;20193;-86
2022/06/12 05:57:27;;;;;;;3.40;3.20;;;;;;;;;;6377979;22;20173;-85
2022/06/12 05:59:58;;;;;;;3.88;3.58;;;;;;;;;;6378487;22;20166;-85
2022/06/12 06:02:28;;;;;;;4.50;3.45;;;;;;;;;;6378810;22;20164;-82
2022/06/12 06:04:56;;;;;;;3.67;3.38;;;;;;;;;;6379388;22;20246;-85
2022/06/12 06:07:23;;;;;;;3.80;3.50;;;;;;;;;;6376347;22;20208;-85
2022/06/12 06:09:51;;;;;;;4.03;3.67;;;;;;;;;;6375848;22;20196;-85
2022/06/12 06:12:22;;;;;;;3.83;3.25;;;;;;;;;;6379674;22;20176;-85
2022/06/12 06:14:50;;;;;;;3.88;3.58;;;;;;;;;;6369936;22;20193;-86
2022/06/12 06:17:23;;;;;;;3.75;3.45;;;;;;;;;;6373006;22;20170;-85
2022/06/12 06:19:52;;;;;;;5.45;3.65;;;;;;;;;;6375728;22;20165;-83
2022/06/12 06:32:18;;;;;;;3.22;2.95;;;;;;;;;;6317485;22;20299;-86
2022/06/12 06:38:46;;;;;;;;;;;;;;;;;;;;;
2022/06/12 06:47:41;;;;;;;3.47;3.17;;;;;;;;;;6273329;22;20172;-88
2022/06/12 06:50:16;;;;;;;3.25;3.05;;;;;;;;;;6273129;22;20188;-89
2022/06/12 06:52:43;;;;;;;2.92;2.72;;;;;;;;;;6275213;22;20175;-87
2022/06/12 06:55:18;;;;;;;5.20;3.28;;;;;;;;;;6275417;22;20230;-88
2022/06/12 06:57:50;;;;;;;3.20;2.90;;;;;;;;;;6275363;22;20168;-88
2022/06/12 07:00:25;;;;;;;3.13;2.90;;;;;;;;;;6274391;22;20163;-89
2022/06/12 07:03:21;;;;;;;3.33;2.92;;;;;;;;;;6274685;22;20181;-88
2022/06/12 07:12:08;;;;;;;3.30;3.00;;;;;;;;;;6296439;22;20175;-87
2022/06/12 07:14:42;;;;;;;3.72;3.42;;;;;;;;;;6305829;22;20168;-86
2022/06/12 07:17:24;;;;;;;3.75;3.35;;;;;;;;;;6305198;22;20186;-86
2022/06/12 07:23:26;;;;;;;3.67;3.38;;;;;;;;;;6255524;22;20179;-89
2022/06/12 07:26:10;;;;;;;;;;;;;;;;;;;;;
2022/06/12 07:31:59;;;;;;;;;;;;;;;;;;;;;
2022/06/12 07:37:30;;;;;;;3.78;3.45;;;;;;;;;;6282231;22;20193;-84
2022/06/12 07:40:11;;;;;;;3.92;3.53;;;;;;;;;;6306802;22;20171;-87
2022/06/12 07:42:40;;;;;;;3.70;3.40;;;;;;;;;;6306958;22;20234;-91
2022/06/12 07:48:15;;;;;;;8.25;3.40;;;;;;;;;;6337223;22;20200;-89
2022/06/12 09:24:46;;;;;;;;;;;;;;;;;;;;;
2022/06/12 10:49:30;;;;;;;2.47;2.28;;;;;;;;;;6054148;23;20180;-87
2022/06/12 11:39:02;;;;;;;2.38;2.17;;;;;;;;;;6094715;23;20172;-89
2022/06/12 12:30:45;;;;;;;2.83;2.55;;;;;;;;;;5982860;23;20212;-88
2022/06/12 12:54:04;;;;;;;;;;;;;;;;;;;;;
2022/06/12 13:05:47;;;;;;;2.80;2.60;;;;;;;;;;6339144;22;20181;-86
2022/06/12 19:28:25;;;;;;;2.40;2.05;;;;;;;;;;6287027;22;20207;-87
2022/06/12 20:48:23;;;;;;;;;;;;;;;;;;;;;
2022/06/12 20:51:23;;;;;;;2.70;2.45;;;;;;;;;;6220775;22;20188;-85
2022/06/12 20:54:20;;;;;;;3.60;2.58;;;;;;;;;;6271840;22;20171;-86
2022/06/12 21:00:40;;;;;;;2.47;2.28;;;;;;;;;;6211056;23;20169;-86
2022/06/12 21:18:20;;;;;;;2.38;2.17;;;;;;;;;;6294071;22;20208;-86
2022/06/12 22:53:15;;;;;;;2.28;2.08;;;;;;;;;;5610808;25;20306;-86
2022/06/12 22:56:02;;;;;;;2.03;1.90;;;;;;;;;;5686353;25;20181;-87
2022/06/12 22:58:44;;;;;;;1.85;1.75;;;;;;;;;;5685804;25;20182;-86
2022/06/12 23:01:34;;;;;;;;;;;;;;;;;;;;;
2022/06/12 23:10:20;;;;;;;2.75;2.00;;;;;;;;;;5740049;24;20179;-86
2022/06/12 23:22:13;;;;;;;3.58;2.45;;;;;;;;;;5866895;24;20660;-87
2022/06/12 23:24:51;;;;;;;6.07;2.30;;;;;;;;;;5924774;24;20179;-89
2022/06/12 23:27:28;;;;;;;4.68;2.58;;;;;;;;;;5928604;23;20240;-91
2022/06/12 23:30:07;;;;;;;3.17;2.33;;;;;;;;;;6009372;23;20181;-90
2022/06/12 23:32:44;;;;;;;3.75;2.38;;;;;;;;;;6008776;23;20197;-89
2022/06/12 23:35:25;;;;;;;4.93;2.22;;;;;;;;;;6039740;23;20230;-90
2022/06/12 23:38:03;;;;;;;;;;;;;;;;;;;;;
2022/06/12 23:40:41;;;;;;;2.72;2.10;;;;;;;;;;6123980;23;20164;-90
2022/06/12 23:43:50;;;;;;;2.38;2.10;;;;;;;;;;6123990;23;20217;-89
2022/06/12 23:46:24;;;;;;;2.47;2.15;;;;;;;;;;6037306;23;20228;-90
2022/06/12 23:48:58;;;;;;;2.30;2.08;;;;;;;;;;6037550;23;20173;-88
2022/06/12 23:51:35;;;;;;;2.60;2.05;;;;;;;;;;6036538;23;20200;-90
2022/06/12 23:57:12;;;;;;;3.92;2.17;;;;;;;;;;6006014;23;20206;-89
